Time;durP1;ratioP1;P1;durP2;ratioP2;P2;SDS_P1;SDS_P2;PMS_P1;PMS_P2;Temp;Humidity;BMP_temperature;BMP_pressure;BME280_temperature;BME280_humidity;BME280_pressure;Samples;Min_cycle;Max_cycle;Signal;HPM_P1;HPM_P2
2022/12/05 00:00:17;;;;;;;12.73;6.55;;;-9.90;94.60;;;;;;5091080;28;20531;-79
2022/12/05 00:02:43;;;;;;;15.13;8.07;;;-9.90;94.60;;;;;;5081924;28;20058;-79
2022/12/05 00:05:10;;;;;;;10.88;6.93;;;-9.90;94.60;;;;;;5085752;28;20036;-78
2022/12/05 00:07:38;;;;;;;6.93;4.03;;;-9.80;94.70;;;;;;5077407;28;20127;-80
2022/12/05 00:10:05;;;;;;;17.45;8.13;;;-9.90;94.60;;;;;;5065202;28;20119;-81
2022/12/05 00:12:31;;;;;;;;;;;-9.90;94.60;;;;;;5089860;28;20111;-79
2022/12/05 00:14:56;;;;;;;7.77;5.20;;;-9.90;94.60;;;;;;5086192;28;19943;-80
2022/12/05 00:17:22;;;;;;;12.68;7.70;;;-9.90;94.60;;;;;;5095165;28;20444;-79
2022/12/05 00:19:48;;;;;;;8.25;5.78;;;-9.90;94.60;;;;;;5110136;28;20024;-79
2022/12/05 00:22:14;;;;;;;24.15;10.38;;;-9.90;94.70;;;;;;5082996;28;20439;-80
2022/12/05 00:24:41;;;;;;;11.85;7.15;;;-10.00;94.60;;;;;;5085425;28;20054;-79
2022/12/05 00:27:06;;;;;;;14.25;6.03;;;-10.00;94.60;;;;;;5083901;28;20382;-80
2022/12/05 00:29:32;;;;;;;9.80;5.47;;;-10.00;94.70;;;;;;5085408;28;20034;-79
2022/12/05 00:31:58;;;;;;;12.50;5.57;;;-10.00;94.60;;;;;;5091743;28;20370;-80
2022/12/05 00:34:24;;;;;;;12.90;6.93;;;-10.00;94.70;;;;;;5088926;28;20027;-79
2022/12/05 00:36:50;;;;;;;15.25;8.10;;;-10.10;94.60;;;;;;5094541;28;20028;-80
2022/12/05 00:39:16;;;;;;;10.60;7.35;;;-10.10;94.70;;;;;;5096509;28;20107;-81
2022/12/05 00:41:42;;;;;;;14.18;7.32;;;-10.10;94.70;;;;;;5082882;28;20024;-80
2022/12/05 00:44:11;;;;;;;11.30;6.60;;;-10.10;94.70;;;;;;5073251;28;20470;-80
2022/12/05 00:46:37;;;;;;;10.20;6.68;;;-10.10;94.80;;;;;;5072643;28;20439;-79
2022/12/05 00:49:04;;;;;;;9.93;5.80;;;-10.10;94.80;;;;;;5072108;28;20130;-80
2022/12/05 00:51:33;;;;;;;15.13;8.32;;;-10.10;94.90;;;;;;5089729;28;20047;-79
2022/12/05 00:54:05;;;;;;;19.67;7.35;;;-10.10;94.90;;;;;;5094066;28;20032;-79
2022/12/05 00:56:31;;;;;;;6.93;4.78;;;-10.20;94.80;;;;;;5090141;28;20029;-80
2022/12/05 00:58:59;;;;;;;7.72;4.43;;;-10.10;94.80;;;;;;5074889;28;20136;-79
2022/12/05 01:01:34;;;;;;;10.27;5.38;;;-10.20;94.80;;;;;;5086830;28;20027;-79
2022/12/05 01:04:09;;;;;;;11.20;5.43;;;-10.20;94.80;;;;;;5095394;28;20024;-81
2022/12/05 01:06:36;;;;;;;5.75;4.55;;;-10.20;94.90;;;;;;5095425;28;20374;-80
2022/12/05 01:09:03;;;;;;;8.63;5.88;;;-10.20;94.80;;;;;;5095350;28;20353;-80
2022/12/05 01:11:29;;;;;;;16.05;5.80;;;-10.10;94.90;;;;;;5095234;28;20419;-80
2022/12/05 01:13:56;;;;;;;5.38;4.80;;;-10.20;94.90;;;;;;5095285;28;20104;-79
2022/12/05 01:16:28;;;;;;;14.93;5.97;;;-10.10;94.90;;;;;;5095722;28;20020;-81
2022/12/05 01:18:58;;;;;;;9.13;6.55;;;-10.20;94.80;;;;;;5095421;28;20077;-81
2022/12/05 01:21:25;;;;;;;14.73;6.75;;;-10.20;94.80;;;;;;5089479;28;20024;-81
2022/12/05 01:23:51;;;;;;;7.00;4.75;;;-10.10;94.80;;;;;;5095160;28;20096;-80
2022/12/05 01:26:19;;;;;;;14.93;7.00;;;-10.20;94.80;;;;;;5095212;28;20020;-81
2022/12/05 01:28:46;;;;;;;14.13;6.22;;;-10.20;94.70;;;;;;5089229;28;20016;-79
2022/12/05 01:31:14;;;;;;;11.20;6.18;;;-10.20;94.80;;;;;;5080560;28;20540;-79
2022/12/05 01:33:40;;;;;;;11.48;4.80;;;-10.20;94.80;;;;;;5086801;28;20093;-80
2022/12/05 01:36:11;;;;;;;4.55;3.20;;;-10.20;94.80;;;;;;5097268;28;20477;-81
2022/12/05 01:38:41;;;;;;;11.60;5.60;;;-10.20;94.80;;;;;;5095090;28;20028;-81
2022/12/05 01:41:10;;;;;;;14.25;6.65;;;-10.30;94.80;;;;;;5096535;28;20504;-79
2022/12/05 01:44:00;;;;;;;13.52;6.93;;;-10.30;94.80;;;;;;5105818;28;20070;-80
2022/12/05 01:46:28;;;;;;;20.27;6.60;;;-10.30;94.90;;;;;;5095400;28;20020;-81
2022/12/05 01:49:06;;;;;;;5.47;4.80;;;-10.30;94.80;;;;;;5094582;28;20194;-80
2022/12/05 01:51:33;;;;;;;11.57;8.20;;;-10.30;94.90;;;;;;5094868;28;20020;-82
2022/12/05 01:54:00;;;;;;;;;;;-10.40;94.80;;;;;;5095212;28;20016;-82
2022/12/05 01:56:26;;;;;;;10.07;4.45;;;-10.40;94.90;;;;;;5094956;28;19998;-81
2022/12/05 01:58:54;;;;;;;9.13;5.30;;;-10.40;94.90;;;;;;5093905;28;20058;-81
2022/12/05 02:01:20;;;;;;;9.50;5.57;;;-10.40;95.00;;;;;;5080729;28;20371;-79
2022/12/05 02:03:49;;;;;;;9.50;5.28;;;-10.40;95.00;;;;;;5094602;28;20036;-80
2022/12/05 02:06:15;;;;;;;7.65;5.85;;;-10.40;95.10;;;;;;5094319;28;20054;-80
2022/12/05 02:08:42;;;;;;;15.05;7.80;;;-10.40;95.10;;;;;;5094602;28;20055;-80
2022/12/05 02:11:08;;;;;;;11.30;7.20;;;-10.50;95.10;;;;;;5094307;28;20103;-80
2022/12/05 02:13:52;;;;;;;10.23;5.65;;;-10.50;95.10;;;;;;5087227;28;20106;-79
2022/12/05 02:16:37;;;;;;;16.98;6.93;;;-10.50;95.10;;;;;;5087529;28;20111;-80
2022/12/05 02:19:08;;;;;;;9.48;6.75;;;-10.50;95.10;;;;;;5094504;28;20099;-81
2022/12/05 02:22:01;;;;;;;16.25;7.78;;;-10.50;95.10;;;;;;5099344;28;20020;-79
2022/12/05 02:24:57;;;;;;;10.95;5.75;;;-10.50;95.20;;;;;;5099031;28;20081;-80
2022/12/05 02:27:45;;;;;;;10.85;6.38;;;-10.50;95.10;;;;;;5083311;28;20028;-80
2022/12/05 02:30:16;;;;;;;10.25;5.65;;;-10.50;95.20;;;;;;5093931;28;20028;-79
2022/12/05 02:32:47;;;;;;;13.10;5.63;;;-10.50;95.10;;;;;;5075553;28;20024;-81
2022/12/05 02:35:36;;;;;;;16.00;7.75;;;-10.50;95.20;;;;;;5093712;28;20122;-80
2022/12/05 02:38:37;;;;;;;14.40;7.10;;;-10.50;95.20;;;;;;5093992;28;20035;-80
2022/12/05 02:41:12;;;;;;;17.48;8.32;;;-10.50;95.20;;;;;;5005384;28;20037;-80
2022/12/05 02:43:41;;;;;;;14.73;6.85;;;-10.50;95.20;;;;;;5017839;28;20623;-80
2022/12/05 02:46:28;;;;;;;18.95;8.20;;;-10.50;95.20;;;;;;5014086;28;20026;-81
2022/12/05 02:48:58;;;;;;;5.38;3.25;;;-10.60;95.20;;;;;;5011099;28;20034;-80
2022/12/05 02:51:29;;;;;;;13.65;6.03;;;-10.60;95.20;;;;;;5011678;28;20065;-79
2022/12/05 02:53:58;;;;;;;7.60;5.75;;;-10.60;95.20;;;;;;5011373;28;20527;-82
2022/12/05 02:56:25;;;;;;;13.70;6.55;;;-10.60;95.20;;;;;;5011705;28;20049;-81
2022/12/05 02:58:54;;;;;;;11.05;6.25;;;-10.60;95.20;;;;;;5012956;28;20026;-79
2022/12/05 03:01:26;;;;;;;9.27;4.82;;;-10.60;95.20;;;;;;5011977;28;20120;-80
2022/12/05 03:03:52;;;;;;;17.02;6.13;;;-10.60;95.20;;;;;;5011902;28;20041;-82
2022/12/05 03:06:24;;;;;;;15.70;6.30;;;-10.60;95.10;;;;;;5013006;28;20048;-79
2022/12/05 03:08:57;;;;;;;9.00;6.25;;;-10.60;95.20;;;;;;5013752;28;20061;-80
2022/12/05 03:11:23;;;;;;;16.23;8.60;;;-10.60;95.10;;;;;;5012209;28;20033;-80
2022/12/05 03:13:54;;;;;;;8.25;5.00;;;-10.60;95.10;;;;;;5014001;28;20469;-82
2022/12/05 03:16:28;;;;;;;11.20;5.60;;;-10.60;95.10;;;;;;5099122;28;20023;-79
2022/12/05 03:18:58;;;;;;;5.72;4.72;;;-10.60;95.10;;;;;;5098177;28;20028;-80
2022/12/05 03:21:30;;;;;;;12.77;5.88;;;-10.60;95.10;;;;;;5079114;28;20118;-80
2022/12/05 03:24:03;;;;;;;8.18;5.32;;;-10.60;95.10;;;;;;5076256;28;20118;-80
2022/12/05 03:27:08;;;;;;;6.85;3.88;;;-10.60;95.10;;;;;;5094320;28;20016;-79
2022/12/05 03:29:50;;;;;;;13.73;5.88;;;-10.60;95.20;;;;;;5092161;28;20085;-82
2022/12/05 03:32:21;;;;;;;10.48;6.13;;;-10.60;95.10;;;;;;5092851;28;20020;-81
2022/12/05 03:35:18;;;;;;;7.97;5.68;;;-10.60;95.10;;;;;;5092563;28;20013;-80
2022/12/05 03:37:55;;;;;;;10.65;5.13;;;-10.60;95.10;;;;;;5093305;28;20129;-79
2022/12/05 03:40:40;;;;;;;8.45;5.80;;;-10.60;95.00;;;;;;5075204;28;20061;-80
2022/12/05 03:43:24;;;;;;;9.10;6.25;;;-10.60;95.10;;;;;;5092688;28;20513;-80
2022/12/05 03:46:04;;;;;;;10.50;4.60;;;-10.70;95.10;;;;;;5074149;28;20069;-80
2022/12/05 03:49:02;;;;;;;14.38;6.97;;;-10.60;95.10;;;;;;5074618;28;20123;-80
2022/12/05 03:51:36;;;;;;;8.07;5.68;;;-10.70;95.00;;;;;;5071538;28;20447;-80
2022/12/05 03:54:17;;;;;;;18.80;7.20;;;-10.70;95.00;;;;;;5092308;28;20020;-81
2022/12/05 03:56:51;;;;;;;7.38;6.35;;;-10.70;95.10;;;;;;5074560;28;20028;-80
2022/12/05 03:59:27;;;;;;;8.40;4.82;;;-10.70;95.10;;;;;;5092688;28;20008;-81
2022/12/05 04:01:55;;;;;;;12.00;6.43;;;-10.70;95.10;;;;;;5092136;28;20048;-80
2022/12/05 04:04:33;;;;;;;10.18;4.93;;;-10.60;95.00;;;;;;5094079;28;20500;-81
2022/12/05 04:07:03;;;;;;;11.00;6.35;;;-10.60;95.00;;;;;;5100164;28;20048;-79
2022/12/05 04:09:44;;;;;;;10.02;5.57;;;-10.60;95.00;;;;;;5074405;28;20020;-81
2022/12/05 04:12:16;;;;;;;7.88;4.85;;;-10.60;95.00;;;;;;5092487;28;20028;-80
2022/12/05 04:14:46;;;;;;;11.15;6.72;;;-10.60;94.90;;;;;;5092151;28;20072;-80
2022/12/05 04:17:37;;;;;;;5.88;4.20;;;-10.60;94.90;;;;;;5092687;28;20028;-81
2022/12/05 04:23:03;;;;;;;4.68;3.28;;;-10.70;94.60;;;;;;5019652;28;20042;-80
2022/12/05 04:25:50;;;;;;;10.30;6.55;;;-10.70;94.60;;;;;;5095105;28;20028;-80
2022/12/05 04:28:31;;;;;;;4.53;3.22;;;-10.70;94.90;;;;;;5077218;28;20370;-81
2022/12/05 04:31:22;;;;;;;9.02;5.65;;;-10.70;94.70;;;;;;5093928;28;20024;-82
2022/12/05 04:33:55;;;;;;;6.70;4.85;;;-10.70;94.80;;;;;;5091861;28;20020;-81
2022/12/05 04:36:22;;;;;;;10.82;6.07;;;-10.70;95.10;;;;;;5092440;28;20075;-80
2022/12/05 04:39:00;;;;;;;;;;;-10.70;94.80;;;;;;5095903;28;20073;-80
2022/12/05 04:41:38;;;;;;;2.65;2.28;;;-10.70;94.80;;;;;;5091647;28;19915;-80
2022/12/05 04:44:08;;;;;;;9.90;6.15;;;-10.70;94.80;;;;;;5091827;28;20036;-80
2022/12/05 04:46:37;;;;;;;9.60;5.60;;;-10.70;94.80;;;;;;5092029;28;20122;-81
2022/12/05 04:49:07;;;;;;;10.85;4.95;;;-10.70;94.80;;;;;;5091425;28;20081;-81
2022/12/05 04:51:35;;;;;;;15.75;7.45;;;-10.70;94.80;;;;;;5073443;28;20417;-80
2022/12/05 04:54:08;;;;;;;9.45;4.82;;;-10.70;95.10;;;;;;5092319;28;20061;-82
2022/12/05 04:56:37;;;;;;;12.32;7.22;;;-10.70;94.80;;;;;;5073676;28;20027;-80
2022/12/05 04:59:03;;;;;;;9.55;5.15;;;-10.70;94.70;;;;;;5074042;28;20060;-80
2022/12/05 05:01:52;;;;;;;7.07;4.68;;;-10.70;94.60;;;;;;5092757;28;20017;-81
2022/12/05 05:04:33;;;;;;;6.03;4.05;;;-10.70;94.60;;;;;;5092264;28;20500;-82
2022/12/05 05:07:03;;;;;;;9.38;5.65;;;-10.70;94.60;;;;;;5075715;28;20103;-81
2022/12/05 05:09:29;;;;;;;12.48;5.97;;;-10.70;94.60;;;;;;5092013;28;20366;-81
2022/12/05 05:11:55;;;;;;;14.57;6.60;;;-10.80;94.60;;;;;;5092110;28;20085;-81
2022/12/05 05:14:21;;;;;;;9.75;4.88;;;-10.70;94.60;;;;;;5091584;28;20024;-81
2022/12/05 05:16:47;;;;;;;10.40;4.82;;;-10.70;94.60;;;;;;5091860;28;20016;-79
2022/12/05 05:19:13;;;;;;;8.52;4.07;;;-10.70;94.50;;;;;;5095591;28;20151;-81
2022/12/05 05:21:41;;;;;;;11.40;6.65;;;-10.80;94.40;;;;;;5090579;28;20055;-81
2022/12/05 05:24:08;;;;;;;8.52;5.07;;;-10.70;94.50;;;;;;5096277;28;20506;-80
2022/12/05 05:26:36;;;;;;;6.03;4.55;;;-10.80;94.50;;;;;;5100557;28;20015;-81
2022/12/05 05:29:03;;;;;;;7.10;4.60;;;-10.80;94.50;;;;;;5093526;28;20389;-81
2022/12/05 05:31:29;;;;;;;6.85;5.30;;;-10.80;94.50;;;;;;5088006;28;20025;-80
2022/12/05 05:33:56;;;;;;;11.48;7.38;;;-10.80;94.50;;;;;;5065159;28;20534;-80
2022/12/05 05:36:24;;;;;;;10.55;6.95;;;-10.80;94.50;;;;;;5095921;28;20023;-80
2022/12/05 05:38:52;;;;;;;7.68;4.63;;;-10.70;94.50;;;;;;5076502;28;20028;-82
2022/12/05 05:41:21;;;;;;;8.90;5.22;;;-10.70;94.60;;;;;;5092082;28;20035;-81
2022/12/05 05:43:47;;;;;;;6.60;4.07;;;-10.70;94.50;;;;;;5093325;28;20028;-82
2022/12/05 05:46:17;;;;;;;4.43;3.60;;;-10.70;94.50;;;;;;5082489;28;20024;-82
2022/12/05 05:48:43;;;;;;;9.50;5.75;;;-10.70;94.30;;;;;;5096121;28;20125;-81
2022/12/05 05:51:12;;;;;;;7.13;4.97;;;-10.70;94.20;;;;;;5086652;28;20017;-82
2022/12/05 05:53:38;;;;;;;4.38;3.63;;;-10.70;94.00;;;;;;5102767;28;20027;-82
2022/12/05 05:56:07;;;;;;;9.68;4.70;;;-10.80;94.10;;;;;;5102296;28;20024;-82
2022/12/05 05:58:33;;;;;;;9.23;5.88;;;-10.80;94.10;;;;;;5065974;28;20127;-80
2022/12/05 06:01:07;;;;;;;10.20;6.33;;;-10.70;94.10;;;;;;5093914;28;20035;-81
2022/12/05 06:03:34;;;;;;;11.70;6.10;;;-10.70;94.10;;;;;;5093404;28;20509;-81
2022/12/05 06:06:03;;;;;;;7.32;3.97;;;-10.70;94.00;;;;;;5085034;28;20024;-80
2022/12/05 06:08:30;;;;;;;8.25;5.43;;;-10.70;94.00;;;;;;5088640;28;20084;-80
2022/12/05 06:10:56;;;;;;;9.30;4.72;;;-10.70;94.10;;;;;;5091979;28;20043;-81
2022/12/05 06:13:22;;;;;;;9.30;6.00;;;-10.60;94.20;;;;;;5075925;28;20036;-81
2022/12/05 06:15:48;;;;;;;9.77;5.65;;;-10.50;94.20;;;;;;5073669;28;20024;-80
2022/12/05 06:18:13;;;;;;;11.15;6.70;;;-10.50;94.30;;;;;;5088106;28;20090;-81
2022/12/05 06:20:40;;;;;;;14.48;6.22;;;-10.40;94.20;;;;;;5076287;28;20016;-82
2022/12/05 06:23:05;;;;;;;12.27;5.50;;;-10.30;94.30;;;;;;5094897;28;20024;-79
2022/12/05 06:25:31;;;;;;;6.18;4.65;;;-10.20;94.20;;;;;;5083501;28;20496;-80
2022/12/05 06:27:57;;;;;;;7.55;6.32;;;-10.20;93.30;;;;;;5075085;28;20032;-81
2022/12/05 06:30:23;;;;;;;8.23;4.93;;;-10.20;93.00;;;;;;5078610;28;20049;-81
2022/12/05 06:32:49;;;;;;;7.40;4.60;;;-10.20;93.00;;;;;;5100588;28;20021;-81
2022/12/05 06:35:15;;;;;;;11.75;5.55;;;-10.20;92.90;;;;;;5094892;28;20020;-82
2022/12/05 06:37:44;;;;;;;10.25;5.35;;;-10.20;92.80;;;;;;5096012;28;20031;-80
2022/12/05 06:40:12;;;;;;;10.10;6.05;;;-10.30;92.70;;;;;;5093453;28;20058;-81
2022/12/05 06:42:37;;;;;;;;;;;-10.20;92.90;;;;;;5094388;28;20077;-78
2022/12/05 06:45:04;;;;;;;5.50;4.03;;;-10.10;92.80;;;;;;5076119;28;20280;-80
2022/12/05 06:47:30;;;;;;;5.95;3.33;;;-10.10;92.60;;;;;;5094816;28;20016;-81
2022/12/05 06:49:56;;;;;;;11.15;5.57;;;-10.10;92.50;;;;;;5081481;28;20035;-81
2022/12/05 06:52:22;;;;;;;6.90;4.05;;;-10.00;92.50;;;;;;5092607;28;20028;-82
2022/12/05 06:54:48;;;;;;;5.00;4.32;;;-9.90;92.70;;;;;;5093345;28;20024;-81
2022/12/05 06:57:14;;;;;;;5.90;3.80;;;-9.90;92.30;;;;;;5075052;28;20115;-80
2022/12/05 06:59:42;;;;;;;4.47;3.20;;;-9.90;92.20;;;;;;5093357;28;20028;-81
2022/12/05 07:02:11;;;;;;;4.15;2.55;;;-9.90;92.20;;;;;;5092913;28;20142;-82
2022/12/05 07:04:37;;;;;;;9.77;5.70;;;-9.80;92.40;;;;;;5086290;28;20392;-82
2022/12/05 07:07:03;;;;;;;5.18;4.00;;;-9.70;92.30;;;;;;5093516;28;20028;-82
2022/12/05 07:09:44;;;;;;;10.05;5.90;;;-9.60;92.10;;;;;;5074881;28;20055;-82
2022/12/05 07:12:12;;;;;;;6.13;4.68;;;-9.60;92.20;;;;;;5093040;28;20028;-81
2022/12/05 07:14:38;;;;;;;4.80;3.70;;;-9.50;92.00;;;;;;5059381;28;20024;-81
2022/12/05 07:17:04;;;;;;;13.73;5.50;;;-9.60;91.60;;;;;;5097853;28;20023;-80
2022/12/05 07:19:30;;;;;;;7.97;5.20;;;-9.50;91.50;;;;;;5092015;28;20507;-81
2022/12/05 07:21:56;;;;;;;6.88;5.00;;;-9.50;91.50;;;;;;5093622;28;20099;-80
2022/12/05 07:24:22;;;;;;;7.75;4.30;;;-9.50;91.50;;;;;;5079953;28;20036;-82
2022/12/05 07:26:48;;;;;;;10.15;5.88;;;-9.40;91.50;;;;;;5093911;28;20023;-81
2022/12/05 07:29:14;;;;;;;14.77;7.10;;;-9.30;91.40;;;;;;5108073;28;20027;-80
2022/12/05 07:31:40;;;;;;;9.07;4.38;;;-9.30;91.30;;;;;;5089408;28;20478;-81
2022/12/05 07:34:06;;;;;;;11.02;5.53;;;-9.20;91.20;;;;;;5087536;28;20034;-79
2022/12/05 07:36:32;;;;;;;14.23;6.03;;;-9.10;91.20;;;;;;5084962;28;20040;-80
2022/12/05 07:38:58;;;;;;;11.02;5.78;;;-9.00;91.00;;;;;;5099161;28;20052;-81
2022/12/05 07:41:27;;;;;;;13.73;6.43;;;-9.00;91.10;;;;;;5090899;28;20024;-83
2022/12/05 07:43:55;;;;;;;5.78;3.63;;;-8.90;91.00;;;;;;5063442;28;20489;-81
2022/12/05 07:46:22;;;;;;;7.60;4.88;;;-8.90;90.70;;;;;;5089667;28;20020;-80
2022/12/05 07:48:54;;;;;;;7.97;4.32;;;-9.00;90.60;;;;;;5079242;28;20122;-79
2022/12/05 07:51:20;;;;;;;9.27;3.50;;;-9.00;90.60;;;;;;5082460;28;20031;-80
2022/12/05 07:53:47;;;;;;;9.10;4.28;;;-9.10;90.50;;;;;;5093034;28;20422;-79
2022/12/05 07:56:15;;;;;;;10.27;4.15;;;-9.10;90.40;;;;;;5092180;28;20032;-81
2022/12/05 07:58:43;;;;;;;5.43;4.43;;;-9.10;90.60;;;;;;5093114;28;20019;-82
2022/12/05 08:01:12;;;;;;;8.68;4.90;;;-9.10;90.70;;;;;;5093717;28;20454;-80
2022/12/05 08:03:38;;;;;;;3.75;2.75;;;-9.00;90.20;;;;;;5077650;28;20182;-79
2022/12/05 08:06:06;;;;;;;5.70;3.90;;;-9.00;90.30;;;;;;5074142;28;20154;-81
2022/12/05 08:08:32;;;;;;;7.55;4.80;;;-9.00;90.30;;;;;;5071355;28;20025;-80
2022/12/05 08:11:03;;;;;;;9.20;5.70;;;-8.90;90.30;;;;;;5067728;28;20050;-81
2022/12/05 08:13:29;;;;;;;6.03;3.40;;;-8.90;90.30;;;;;;5071824;28;20025;-82
2022/12/05 08:15:58;;;;;;;6.55;3.63;;;-8.70;90.10;;;;;;5071857;28;20072;-80
2022/12/05 08:18:24;;;;;;;8.45;4.53;;;-8.60;90.10;;;;;;5065981;28;20214;-80
2022/12/05 08:20:50;;;;;;;7.15;5.20;;;-8.60;89.30;;;;;;5063346;28;20107;-81
2022/12/05 08:23:16;;;;;;;6.03;4.60;;;-8.60;89.10;;;;;;5065618;28;20033;-80
2022/12/05 08:25:42;;;;;;;8.85;4.85;;;-8.60;89.10;;;;;;5066873;28;20055;-79
2022/12/05 08:28:07;;;;;;;5.85;3.50;;;-8.60;88.90;;;;;;5069625;28;20027;-81
2022/12/05 08:30:33;;;;;;;8.70;5.20;;;-8.60;88.30;;;;;;5073173;28;20028;-81
2022/12/05 08:32:59;;;;;;;9.10;5.00;;;-8.60;88.30;;;;;;5069872;28;20107;-81
2022/12/05 08:35:25;;;;;;;7.88;5.32;;;-8.50;88.30;;;;;;5067678;28;20021;-82
2022/12/05 08:37:51;;;;;;;4.47;3.20;;;-8.20;89.60;;;;;;5067102;28;20020;-80
2022/12/05 08:40:17;;;;;;;10.32;6.18;;;-7.80;87.70;;;;;;5064858;28;20021;-81
2022/12/05 08:42:43;;;;;;;7.82;7.03;;;-7.60;87.60;;;;;;5071730;28;20382;-81
2022/12/05 08:45:09;;;;;;;5.28;3.85;;;-7.50;84.70;;;;;;5071401;28;20036;-82
2022/12/05 08:47:35;;;;;;;6.05;3.92;;;-7.50;83.60;;;;;;5073959;28;20027;-80
2022/12/05 08:50:01;;;;;;;10.10;6.18;;;-7.60;83.90;;;;;;5072189;28;20051;-80
2022/12/05 08:52:27;;;;;;;12.95;6.45;;;-7.60;84.40;;;;;;5071503;28;20017;-80
2022/12/05 08:54:53;;;;;;;7.20;4.22;;;-7.50;84.60;;;;;;5060622;28;20478;-82
2022/12/05 08:57:19;;;;;;;9.23;5.20;;;-7.30;84.70;;;;;;5065289;28;20044;-81
2022/12/05 08:59:44;;;;;;;4.97;3.45;;;-7.10;83.20;;;;;;5060445;28;20021;-81
2022/12/05 09:02:10;;;;;;;12.43;6.05;;;-7.00;82.10;;;;;;5063577;28;20044;-81
2022/12/05 09:04:36;;;;;;;10.95;5.30;;;-6.80;82.00;;;;;;5085449;28;20031;-81
2022/12/05 09:07:02;;;;;;;8.40;4.47;;;-6.40;83.00;;;;;;5073024;28;20134;-81
2022/12/05 09:09:32;;;;;;;14.55;6.80;;;-5.80;83.20;;;;;;5083541;28;20072;-81
2022/12/05 09:12:01;;;;;;;11.75;5.93;;;-5.40;80.10;;;;;;5077452;28;20031;-81
2022/12/05 09:14:31;;;;;;;10.63;4.28;;;-5.00;80.50;;;;;;5081249;28;20366;-81
2022/12/05 09:16:59;;;;;;;8.60;5.22;;;-4.60;78.00;;;;;;5085126;28;20021;-81
2022/12/05 09:19:26;;;;;;;7.88;4.70;;;-4.90;74.70;;;;;;5091055;28;20381;-80
2022/12/05 09:21:52;;;;;;;;;;;-5.00;76.00;;;;;;5061740;28;20017;-80
2022/12/05 09:24:18;;;;;;;8.73;4.05;;;-5.30;75.50;;;;;;5089516;28;19924;-81
2022/12/05 09:26:45;;;;;;;8.93;6.03;;;-5.70;74.20;;;;;;5100368;28;20477;-81
2022/12/05 09:29:17;;;;;;;6.90;3.63;;;-6.10;75.60;;;;;;5083479;28;20474;-80
2022/12/05 09:34:50;;;;;;;5.60;3.80;;;-6.60;76.90;;;;;;5092068;28;20035;-80
2022/12/05 09:37:17;;;;;;;6.18;3.65;;;-6.70;77.50;;;;;;5088516;28;20020;-84
2022/12/05 09:39:46;;;;;;;6.00;3.50;;;-6.90;78.00;;;;;;5062499;28;20069;-84
2022/12/05 09:42:35;;;;;;;8.25;4.63;;;-7.00;78.40;;;;;;5092412;28;20023;-83
2022/12/05 09:45:22;;;;;;;8.45;4.95;;;-7.00;78.90;;;;;;5076841;28;20042;-80
2022/12/05 09:48:09;;;;;;;7.90;3.28;;;-7.00;79.10;;;;;;5079804;28;20044;-83
2022/12/05 09:50:43;;;;;;;6.82;4.28;;;-7.00;79.10;;;;;;5077179;28;20021;-80
2022/12/05 09:53:20;;;;;;;8.93;5.47;;;-7.00;79.00;;;;;;5095719;28;20036;-80
2022/12/05 09:56:11;;;;;;;6.20;5.03;;;-7.00;79.60;;;;;;5074305;28;20017;-79
2022/12/05 09:58:45;;;;;;;8.13;4.15;;;-6.80;79.80;;;;;;5088075;28;20028;-81
2022/12/05 10:01:11;;;;;;;11.77;4.78;;;-6.60;79.30;;;;;;5077204;28;20016;-81
2022/12/05 10:03:42;;;;;;;6.88;4.32;;;-6.30;79.20;;;;;;5085947;28;20066;-80
2022/12/05 10:06:20;;;;;;;7.82;3.85;;;-6.20;77.40;;;;;;5080864;28;20030;-80
2022/12/05 10:08:52;;;;;;;13.23;5.00;;;-6.20;76.90;;;;;;5077037;28;20028;-78
2022/12/05 10:11:34;;;;;;;7.10;5.07;;;-6.20;77.10;;;;;;5094145;28;20377;-80
2022/12/05 10:14:10;;;;;;;8.32;4.32;;;-6.10;77.60;;;;;;5094491;28;20122;-80
2022/12/05 10:16:45;;;;;;;5.83;3.33;;;-5.90;77.30;;;;;;5094007;28;20373;-80
2022/12/05 10:19:34;;;;;;;8.00;3.95;;;-5.90;75.40;;;;;;5093249;28;20253;-80
2022/12/05 10:22:12;;;;;;;8.88;4.47;;;-6.10;75.30;;;;;;5094012;28;20017;-81
2022/12/05 10:24:44;;;;;;;3.65;2.63;;;-6.20;76.30;;;;;;5090558;28;20035;-83
2022/12/05 10:27:25;;;;;;;9.25;5.30;;;-6.40;75.60;;;;;;5084200;28;20024;-81
2022/12/05 10:30:01;;;;;;;6.78;3.65;;;-6.50;76.50;;;;;;5093749;28;20027;-80
2022/12/05 10:32:39;;;;;;;8.88;3.75;;;-6.50;77.10;;;;;;5094276;28;20016;-79
2022/12/05 10:35:23;;;;;;;11.57;4.90;;;-6.50;76.80;;;;;;5088589;28;20019;-81
2022/12/05 10:37:58;;;;;;;6.63;4.05;;;-6.70;76.70;;;;;;5088923;28;20366;-81
2022/12/05 10:40:35;;;;;;;9.20;5.63;;;-6.70;77.20;;;;;;5098491;28;20046;-79
2022/12/05 10:43:01;;;;;;;5.57;4.70;;;-6.60;77.80;;;;;;5094721;28;20443;-80
2022/12/05 10:45:27;;;;;;;9.25;5.32;;;-6.50;78.10;;;;;;5075451;28;20032;-79
2022/12/05 10:47:56;;;;;;;6.95;3.38;;;-6.40;78.00;;;;;;5088062;28;20039;-78
2022/12/05 10:50:35;;;;;;;10.35;6.45;;;-6.40;78.30;;;;;;5093019;28;20024;-78
2022/12/05 10:53:04;;;;;;;8.45;3.78;;;-6.40;77.60;;;;;;5074982;28;20028;-80
2022/12/05 10:55:39;;;;;;;9.30;4.80;;;-6.50;76.90;;;;;;5090219;28;20470;-79
2022/12/05 10:58:12;;;;;;;6.75;3.60;;;-6.60;77.00;;;;;;5086823;28;20021;-79
2022/12/05 11:00:43;;;;;;;8.13;5.57;;;-6.60;77.40;;;;;;5088978;28;20492;-80
2022/12/05 11:03:31;;;;;;;3.85;3.38;;;-6.60;77.60;;;;;;5093060;28;20051;-81
2022/12/05 11:06:02;;;;;;;11.15;4.88;;;-6.60;76.60;;;;;;5072982;28;20370;-80
2022/12/05 11:08:31;;;;;;;9.43;3.85;;;-6.70;77.00;;;;;;5082470;28;20121;-79
2022/12/05 11:11:17;;;;;;;12.38;5.18;;;-6.80;76.90;;;;;;5092867;28;21643;-79
2022/12/05 11:13:58;;;;;;;6.73;4.00;;;-6.80;77.50;;;;;;5085011;28;20537;-79
2022/12/05 11:16:33;;;;;;;9.02;4.03;;;-6.80;77.30;;;;;;5092976;28;20024;-80
2022/12/05 11:19:27;;;;;;;13.63;5.45;;;-6.80;77.40;;;;;;5093004;28;20031;-80
2022/12/05 11:21:54;;;;;;;5.90;4.60;;;-6.80;78.00;;;;;;5041833;28;20377;-78
2022/12/05 11:24:34;;;;;;;10.70;6.00;;;-6.80;77.90;;;;;;5087546;28;20362;-80
2022/12/05 11:27:20;;;;;;;6.45;3.65;;;-6.90;78.30;;;;;;5092873;28;20035;-81
2022/12/05 11:29:57;;;;;;;7.25;2.95;;;-7.00;78.00;;;;;;5088954;28;20027;-82
2022/12/05 11:32:33;;;;;;;10.15;4.72;;;-7.10;78.00;;;;;;5069987;28;20024;-81
2022/12/05 11:35:10;;;;;;;5.55;3.83;;;-7.20;78.40;;;;;;5092706;28;20024;-79
2022/12/05 11:37:45;;;;;;;7.63;4.43;;;-7.20;78.80;;;;;;5093057;28;20101;-81
2022/12/05 11:40:20;;;;;;;8.25;4.22;;;-7.30;79.00;;;;;;5067635;28;20422;-79
2022/12/05 11:43:11;;;;;;;10.88;4.25;;;-7.40;79.20;;;;;;5086567;28;20415;-80
2022/12/05 11:46:05;;;;;;;12.35;5.88;;;-7.30;79.80;;;;;;5073171;28;20081;-79
2022/12/05 11:48:37;;;;;;;8.40;4.25;;;-7.30;80.00;;;;;;5092373;28;20385;-79
2022/12/05 11:51:25;;;;;;;4.07;2.25;;;-7.20;80.10;;;;;;5088886;28;20107;-79
2022/12/05 11:54:02;;;;;;;7.30;4.38;;;-7.30;79.60;;;;;;5091297;28;20113;-79
2022/12/05 11:56:50;;;;;;;7.32;4.78;;;-7.30;79.50;;;;;;5091598;28;20044;-79
2022/12/05 11:59:28;;;;;;;9.55;4.30;;;-7.40;80.00;;;;;;5086271;28;20061;-79
2022/12/05 12:02:30;;;;;;;8.18;5.72;;;-7.40;80.30;;;;;;5071113;28;20050;-80
2022/12/05 12:05:15;;;;;;;10.13;5.45;;;-7.40;80.60;;;;;;5074367;28;20036;-79
2022/12/05 12:07:59;;;;;;;8.65;3.65;;;-7.30;80.70;;;;;;5090274;28;20459;-78
2022/12/05 12:11:02;;;;;;;8.68;2.83;;;-7.40;80.40;;;;;;5083624;28;20034;-81
2022/12/05 12:13:38;;;;;;;5.50;2.20;;;-7.40;80.50;;;;;;5070512;28;20028;-79
2022/12/05 12:16:58;;;;;;;7.80;4.10;;;-7.50;80.80;;;;;;5091506;28;20419;-78
2022/12/05 12:19:37;;;;;;;7.45;4.65;;;-7.60;80.90;;;;;;5041256;28;20062;-76
2022/12/05 12:22:13;;;;;;;10.55;3.80;;;-7.60;81.10;;;;;;5091294;28;20020;-80
2022/12/05 12:24:52;;;;;;;4.80;2.92;;;-7.60;81.20;;;;;;5079376;28;20034;-78
2022/12/05 12:27:24;;;;;;;7.00;3.88;;;-7.50;81.50;;;;;;5092795;28;20027;-80
2022/12/05 12:29:59;;;;;;;9.82;4.65;;;-7.60;81.20;;;;;;5090308;28;20042;-79
2022/12/05 12:32:33;;;;;;;4.88;3.53;;;-7.60;81.60;;;;;;5091627;28;20020;-80
2022/12/05 12:35:22;;;;;;;6.93;4.45;;;-7.60;81.60;;;;;;5090524;28;20032;-81
2022/12/05 12:38:30;;;;;;;10.63;4.90;;;-7.70;81.80;;;;;;5079554;28;20042;-80
2022/12/05 12:41:17;;;;;;;10.27;3.15;;;-7.70;82.20;;;;;;5059768;28;20370;-81
2022/12/05 12:44:08;;;;;;;9.07;4.45;;;-7.70;82.40;;;;;;5082348;28;20035;-78
2022/12/05 12:46:54;;;;;;;9.18;4.68;;;-7.60;82.50;;;;;;5091128;28;20102;-78
2022/12/05 12:49:36;;;;;;;6.60;3.95;;;-7.60;82.70;;;;;;5076838;28;20025;-80
2022/12/05 12:52:16;;;;;;;6.57;3.53;;;-7.60;82.90;;;;;;5097276;28;20130;-80
2022/12/05 12:54:56;;;;;;;11.85;4.95;;;-7.60;83.20;;;;;;5096197;28;20458;-79
2022/12/05 12:57:32;;;;;;;8.38;3.97;;;-7.60;83.20;;;;;;5072565;28;20039;-81
2022/12/05 13:00:01;;;;;;;15.68;6.80;;;-7.60;83.40;;;;;;5076425;28;20153;-82
2022/12/05 13:02:40;;;;;;;12.30;5.53;;;-7.60;83.70;;;;;;5095401;28;20044;-80
2022/12/05 13:05:33;;;;;;;12.13;5.13;;;-7.60;83.80;;;;;;5095570;28;20028;-80
2022/12/05 13:08:22;;;;;;;12.55;5.88;;;-7.60;84.00;;;;;;5089247;28;20059;-79
2022/12/05 13:10:49;;;;;;;15.10;6.70;;;-7.60;84.10;;;;;;5091014;28;20016;-79